Aeroporto :
LOGIN :

Iscrizione | Disclaimer

   EN    FR    IT 

 










Sommario :    VFR   VFR Marginale   IFR   IFR Intensivo   IFR Molto Intensivo
Visibilità : 
Base nubi : 
>= 8 km
>= 3000ft
5 / 8 km
1000 / 3000 ft
1500m / 5 km
500 / 1000 ft
800 / 1500m
200 / 500 ft
< 800m
< 200 ft
Simboli :   Temporali  Nebbia  Neve Forte  Precipitazioni Forti  Vento > 20 kt
SIGMETs :   Varie  Temporali  Ghiacco  Turbolenza  Onda orograficha  Ceneri Vulcaniche






- Altitudine del aeroporto : 1066 ft


EGOM - RAF Spadeadam

ULTIMO METAR :
  • 021520Z AUTO 29002KT 1600 +SN OVC006/// M00/M01 Q1010

METARs OBSOLETI :
  • 021450Z AUTO 23001KT 3000 -RA OVC009/// 00/M01 Q1010
  • 021420Z AUTO 05001KT 6000 -RA OVC015/// 00/M01 Q1010
  • 021350Z AUTO 24001KT 9999 // OVC012/// 00/M00 Q1010
  • 021320Z AUTO 32001KT 9999 OVC011/// M00/M01 Q1010
  • 021250Z AUTO 04001KT 9999 // OVC013/// M00/M01 Q1010
  • 021220Z AUTO 36001KT 9999 // BKN018/// BKN031/// M01/M01 Q1010
  • 021150Z AUTO 05002KT 9999 SN SCT007/// BKN016/// M01/M02 Q1010
  • 021120Z AUTO 05002KT 2500 -RA SCT010/// SCT017/// BKN035/// M01/M02 Q1010
  • 021050Z AUTO 07002KT 3300 RA OVC009/// M01/M02 Q1011

Previsioni scadute.



MetMap, La meteo Aeronautica in un colpo d'occhio ! - Copyright ORBIFLY Dicembre 2007 - Disclaimer

ORBIFLY MET'MAP TEAM :

Programmazione e sviluppo : Alexandra Zaïnal
Concezione : Baudouin d'Aumeries
Supporto tecnico e logistico : Manuel Goepfert
Aiuto : Marc-Olivier Méhu
Aiuto per la traduzione : Arnaldo La Scala




FONTI E CREDITI :

   NOAA